Time;durP1;ratioP1;P1;durP2;ratioP2;P2;SDS_P1;SDS_P2;PMS_P1;PMS_P2;Temp;Humidity;BMP_temperature;BMP_pressure;BME280_temperature;BME280_humidity;BME280_pressure;Samples;Min_cycle;Max_cycle;Signal;HPM_P1;HPM_P2
2023/09/09 00:01:39;;;;;;;22.80;17.27;;;;;;;;;;5087942;23;20113;-55
2023/09/09 00:04:05;;;;;;;23.17;16.65;;;;;;;;;;5090438;28;20670;-53
2023/09/09 00:06:31;;;;;;;22.35;16.92;;;;;;;;;;5090675;28;20035;-56
2023/09/09 00:08:57;;;;;;;24.17;17.98;;;;;;;;;;5090990;28;20020;-54
2023/09/09 00:11:23;;;;;;;24.00;17.33;;;;;;;;;;5089528;28;20082;-53
2023/09/09 00:13:50;;;;;;;22.63;18.05;;;;;;;;;;5089504;28;20032;-56
2023/09/09 00:16:16;;;;;;;23.55;17.90;;;;;;;;;;5090286;28;20024;-56
2023/09/09 00:18:42;;;;;;;23.80;17.58;;;;;;;;;;5090887;28;20098;-56
2023/09/09 00:21:08;;;;;;;22.92;16.50;;;;;;;;;;5090845;28;20109;-56
2023/09/09 00:23:34;;;;;;;27.13;16.77;;;;;;;;;;5091005;28;20031;-50
2023/09/09 00:26:00;;;;;;;23.08;17.05;;;;;;;;;;5090982;28;20103;-54
2023/09/09 00:28:26;;;;;;;23.10;16.58;;;;;;;;;;5088718;28;20411;-53
2023/09/09 00:30:52;;;;;;;22.48;16.30;;;;;;;;;;5094433;28;20166;-57
2023/09/09 00:33:18;;;;;;;23.10;17.85;;;;;;;;;;5086114;28;20020;-56
2023/09/09 00:35:44;;;;;;;22.65;16.67;;;;;;;;;;5093864;28;20467;-52
2023/09/09 00:38:12;;;;;;;22.80;16.38;;;;;;;;;;5093262;28;20063;-50
2023/09/09 00:40:38;;;;;;;24.05;16.77;;;;;;;;;;5094678;28;20024;-55
2023/09/09 00:43:04;;;;;;;22.25;16.45;;;;;;;;;;5094590;28;20036;-54
2023/09/09 00:45:30;;;;;;;22.83;16.80;;;;;;;;;;5094309;28;20044;-57
2023/09/09 00:47:56;;;;;;;23.20;16.13;;;;;;;;;;5094316;28;20116;-57
2023/09/09 00:50:23;;;;;;;21.65;16.17;;;;;;;;;;5094437;28;20024;-54
2023/09/09 00:52:49;;;;;;;22.20;16.60;;;;;;;;;;5089636;28;20224;-53
2023/09/09 00:55:15;;;;;;;22.58;15.95;;;;;;;;;;5093335;28;20112;-56
2023/09/09 00:57:41;;;;;;;24.55;16.60;;;;;;;;;;5094129;28;20024;-52
2023/09/09 01:00:10;;;;;;;21.50;16.10;;;;;;;;;;5094272;28;20051;-56
2023/09/09 01:02:40;;;;;;;20.95;16.02;;;;;;;;;;5092562;28;20076;-56
2023/09/09 01:05:07;;;;;;;23.83;17.33;;;;;;;;;;5093367;28;20025;-57
2023/09/09 01:07:49;;;;;;;21.70;16.92;;;;;;;;;;5094036;28;20024;-57
2023/09/09 01:10:16;;;;;;;20.85;15.85;;;;;;;;;;5093949;28;20017;-57
2023/09/09 01:12:42;;;;;;;22.55;16.13;;;;;;;;;;5093817;28;20404;-57
2023/09/09 01:15:08;;;;;;;20.98;16.48;;;;;;;;;;5091833;28;20028;-57
2023/09/09 01:17:35;;;;;;;21.63;15.98;;;;;;;;;;5093764;28;20056;-57
2023/09/09 01:20:06;;;;;;;26.00;17.08;;;;;;;;;;5093771;28;20028;-57
2023/09/09 01:22:35;;;;;;;20.73;16.33;;;;;;;;;;5092564;28;20105;-57
2023/09/09 01:25:02;;;;;;;22.42;17.83;;;;;;;;;;5093117;28;20519;-57
2023/09/09 01:27:28;;;;;;;22.77;17.23;;;;;;;;;;5093497;28;20016;-57
2023/09/09 01:29:54;;;;;;;25.08;18.38;;;;;;;;;;5093664;28;20032;-56
2023/09/09 01:32:20;;;;;;;23.75;17.45;;;;;;;;;;5093565;28;20089;-53
2023/09/09 01:34:46;;;;;;;24.73;17.25;;;;;;;;;;5092795;28;20460;-57
2023/09/09 01:37:12;;;;;;;23.67;17.65;;;;;;;;;;5091223;28;20032;-59
2023/09/09 01:39:38;;;;;;;23.92;16.52;;;;;;;;;;5093081;28;20036;-56
2023/09/09 01:42:04;;;;;;;22.48;17.05;;;;;;;;;;5091879;28;20028;-57
2023/09/09 01:44:30;;;;;;;25.23;16.60;;;;;;;;;;5092611;28;20458;-57
2023/09/09 01:46:56;;;;;;;23.48;17.23;;;;;;;;;;5093237;28;20107;-57
2023/09/09 01:49:22;;;;;;;21.20;15.80;;;;;;;;;;5093129;28;20365;-57
2023/09/09 01:51:48;;;;;;;23.52;17.25;;;;;;;;;;5092922;28;20055;-53
2023/09/09 01:54:14;;;;;;;22.98;17.15;;;;;;;;;;5092499;28;20024;-54
2023/09/09 01:56:40;;;;;;;22.20;16.65;;;;;;;;;;5091718;28;20036;-55
2023/09/09 01:59:06;;;;;;;22.95;16.55;;;;;;;;;;5093157;28;20024;-52
2023/09/09 02:01:32;;;;;;;23.38;17.23;;;;;;;;;;5093132;28;20043;-55
2023/09/09 02:03:58;;;;;;;22.33;17.13;;;;;;;;;;5092687;28;20024;-56
2023/09/09 02:06:24;;;;;;;22.42;16.33;;;;;;;;;;5092616;28;20372;-55
2023/09/09 02:08:50;;;;;;;22.85;16.70;;;;;;;;;;5092996;28;20016;-52
2023/09/09 02:11:16;;;;;;;21.55;17.23;;;;;;;;;;5092653;28;20039;-51
2023/09/09 02:13:41;;;;;;;22.52;16.40;;;;;;;;;;5092773;28;20077;-54
2023/09/09 02:16:08;;;;;;;22.48;16.85;;;;;;;;;;5091848;28;20051;-52
2023/09/09 02:18:39;;;;;;;23.65;17.88;;;;;;;;;;5092739;28;20165;-55
2023/09/09 02:21:05;;;;;;;21.58;16.92;;;;;;;;;;5092488;28;20024;-55
2023/09/09 02:23:31;;;;;;;25.27;17.05;;;;;;;;;;5092561;28;20036;-56
2023/09/09 02:25:58;;;;;;;25.58;17.67;;;;;;;;;;5084965;28;20052;-56
2023/09/09 02:28:24;;;;;;;23.65;17.58;;;;;;;;;;5081109;28;20066;-54
2023/09/09 02:30:50;;;;;;;22.67;16.95;;;;;;;;;;5091986;28;20517;-56
2023/09/09 02:33:16;;;;;;;22.67;17.08;;;;;;;;;;5092320;28;20110;-56
2023/09/09 02:35:42;;;;;;;24.30;16.92;;;;;;;;;;5091638;28;20419;-53
2023/09/09 02:38:08;;;;;;;24.83;19.02;;;;;;;;;;5090949;28;20029;-55
2023/09/09 02:40:34;;;;;;;24.85;19.17;;;;;;;;;;5092220;28;20391;-55
2023/09/09 02:43:00;;;;;;;27.33;17.88;;;;;;;;;;5092190;28;20064;-56
2023/09/09 02:45:26;;;;;;;28.27;18.33;;;;;;;;;;5091372;28;20035;-56
2023/09/09 02:47:52;;;;;;;24.00;18.75;;;;;;;;;;5090565;28;20032;-55
2023/09/09 02:50:18;;;;;;;24.77;19.38;;;;;;;;;;5091573;28;20081;-56
2023/09/09 02:52:44;;;;;;;22.67;17.85;;;;;;;;;;5090695;28;20472;-52
2023/09/09 02:55:10;;;;;;;27.00;18.80;;;;;;;;;;5091156;28;20047;-56
2023/09/09 02:57:36;;;;;;;27.33;17.92;;;;;;;;;;5091560;28;20480;-56
2023/09/09 03:00:03;;;;;;;23.98;18.15;;;;;;;;;;5090496;28;20181;-56
2023/09/09 03:02:29;;;;;;;23.92;17.05;;;;;;;;;;5091835;28;20442;-56
2023/09/09 03:04:57;;;;;;;23.38;18.15;;;;;;;;;;5089848;28;20020;-56
2023/09/09 03:07:23;;;;;;;23.98;17.55;;;;;;;;;;5091772;28;20031;-56
2023/09/09 03:09:49;;;;;;;25.90;20.60;;;;;;;;;;5091874;28;20388;-55
2023/09/09 03:12:20;;;;;;;25.65;19.00;;;;;;;;;;5091833;28;20078;-56
2023/09/09 03:14:50;;;;;;;27.33;20.55;;;;;;;;;;5090882;28;20023;-54
2023/09/09 03:17:17;;;;;;;26.83;20.85;;;;;;;;;;5090325;28;20036;-56
2023/09/09 03:19:43;;;;;;;25.33;20.30;;;;;;;;;;5091611;28;20032;-56
2023/09/09 03:22:09;;;;;;;26.67;20.50;;;;;;;;;;5091457;28;20099;-56
2023/09/09 03:24:35;;;;;;;25.52;21.10;;;;;;;;;;5090741;28;20055;-56
2023/09/09 03:27:01;;;;;;;30.02;21.50;;;;;;;;;;5091149;28;20028;-55
2023/09/09 03:29:27;;;;;;;26.95;21.00;;;;;;;;;;5091290;28;20483;-56
2023/09/09 03:31:53;;;;;;;29.70;22.63;;;;;;;;;;5091102;28;20040;-55
2023/09/09 03:34:19;;;;;;;28.58;21.80;;;;;;;;;;5090486;28;20020;-56
2023/09/09 03:36:45;;;;;;;27.55;20.55;;;;;;;;;;5091317;28;20073;-56
2023/09/09 03:39:11;;;;;;;24.73;20.30;;;;;;;;;;5091303;28;20499;-54
2023/09/09 03:41:39;;;;;;;26.42;21.08;;;;;;;;;;5089900;28;20028;-56
2023/09/09 03:44:05;;;;;;;28.65;22.10;;;;;;;;;;5089240;28;20027;-56
2023/09/09 03:46:31;;;;;;;27.60;22.65;;;;;;;;;;5090945;28;20076;-51
2023/09/09 03:48:57;;;;;;;28.92;21.33;;;;;;;;;;5091310;28;20095;-54
2023/09/09 03:51:23;;;;;;;28.23;22.23;;;;;;;;;;5091417;28;20465;-54
2023/09/09 03:53:49;;;;;;;27.63;22.80;;;;;;;;;;5089746;28;20027;-51
2023/09/09 03:56:16;;;;;;;28.38;22.90;;;;;;;;;;5089051;28;20373;-56
2023/09/09 03:58:42;;;;;;;30.43;23.40;;;;;;;;;;5090987;28;20028;-56
2023/09/09 04:01:09;;;;;;;28.98;23.33;;;;;;;;;;5091878;28;20373;-55
2023/09/09 04:03:36;;;;;;;31.88;22.88;;;;;;;;;;5093937;28;20024;-56
2023/09/09 04:06:09;;;;;;;30.23;23.50;;;;;;;;;;5094364;28;20570;-54
2023/09/09 04:08:36;;;;;;;28.27;23.20;;;;;;;;;;5095001;28;20491;-56
2023/09/09 04:11:03;;;;;;;29.10;24.05;;;;;;;;;;5094873;28;20024;-56
2023/09/09 04:13:29;;;;;;;28.52;22.65;;;;;;;;;;5094975;28;20020;-54
2023/09/09 04:15:56;;;;;;;28.15;23.30;;;;;;;;;;5094243;28;20031;-56
2023/09/09 04:18:22;;;;;;;29.30;22.27;;;;;;;;;;5094956;28;20025;-56
2023/09/09 04:20:48;;;;;;;29.10;22.90;;;;;;;;;;5094876;28;20069;-56
2023/09/09 04:23:14;;;;;;;28.77;23.85;;;;;;;;;;5095018;28;20439;-53
2023/09/09 04:25:40;;;;;;;30.08;23.27;;;;;;;;;;5094230;28;20103;-56
2023/09/09 04:28:09;;;;;;;29.15;23.42;;;;;;;;;;5094845;28;20028;-55
2023/09/09 04:30:36;;;;;;;29.23;21.95;;;;;;;;;;5093662;28;20032;-54
2023/09/09 04:33:02;;;;;;;28.88;23.77;;;;;;;;;;5093343;28;20024;-56
2023/09/09 04:35:28;;;;;;;28.83;23.40;;;;;;;;;;5093888;28;20070;-55
2023/09/09 04:37:54;;;;;;;28.52;23.27;;;;;;;;;;5094737;28;20028;-55
2023/09/09 04:40:20;;;;;;;27.30;23.23;;;;;;;;;;5094819;28;20674;-57
2023/09/09 04:42:46;;;;;;;28.75;24.55;;;;;;;;;;5094460;28;20053;-56
2023/09/09 04:45:12;;;;;;;31.35;23.85;;;;;;;;;;5093925;28;20024;-55
2023/09/09 04:47:38;;;;;;;27.75;22.45;;;;;;;;;;5094570;28;20027;-55
2023/09/09 04:50:04;;;;;;;27.65;22.33;;;;;;;;;;5093147;28;20165;-56
2023/09/09 04:52:30;;;;;;;28.35;22.90;;;;;;;;;;5094533;28;20023;-56
2023/09/09 04:54:56;;;;;;;28.80;21.85;;;;;;;;;;5092373;28;20028;-56
2023/09/09 04:57:22;;;;;;;30.38;21.65;;;;;;;;;;5093487;28;20039;-54
2023/09/09 04:59:48;;;;;;;27.60;22.27;;;;;;;;;;5094550;28;20028;-56
2023/09/09 05:02:14;;;;;;;28.92;23.20;;;;;;;;;;5094044;28;20032;-57
2023/09/09 05:04:41;;;;;;;26.60;21.83;;;;;;;;;;5093515;28;20031;-52
2023/09/09 05:07:07;;;;;;;29.23;23.08;;;;;;;;;;5093795;28;20453;-56
2023/09/09 05:09:32;;;;;;;28.02;21.73;;;;;;;;;;5093986;28;20035;-57
2023/09/09 05:11:58;;;;;;;27.10;22.58;;;;;;;;;;5093559;28;20078;-55
2023/09/09 05:14:24;;;;;;;27.58;22.45;;;;;;;;;;5093179;28;20028;-56
2023/09/09 05:16:50;;;;;;;27.55;22.00;;;;;;;;;;5093826;28;20437;-54
2023/09/09 05:19:16;;;;;;;27.95;23.00;;;;;;;;;;5092552;28;20024;-56
2023/09/09 05:21:42;;;;;;;27.40;22.05;;;;;;;;;;5092288;28;20020;-56
2023/09/09 05:24:08;;;;;;;28.02;22.77;;;;;;;;;;5091400;28;20028;-56
2023/09/09 05:26:34;;;;;;;29.90;23.77;;;;;;;;;;5093481;28;20020;-55
2023/09/09 05:29:01;;;;;;;28.50;23.10;;;;;;;;;;5093628;28;20068;-53
2023/09/09 05:31:27;;;;;;;28.63;22.88;;;;;;;;;;5089730;28;20029;-55
2023/09/09 05:33:53;;;;;;;28.08;22.85;;;;;;;;;;5072710;28;20029;-56
2023/09/09 05:36:19;;;;;;;27.13;21.95;;;;;;;;;;5072865;28;20052;-56
2023/09/09 05:38:45;;;;;;;27.27;21.45;;;;;;;;;;5073256;28;20028;-56
2023/09/09 05:41:11;;;;;;;26.75;22.00;;;;;;;;;;5071642;28;20036;-55
2023/09/09 05:43:37;;;;;;;25.35;21.85;;;;;;;;;;5073481;28;20028;-55
2023/09/09 05:46:04;;;;;;;29.98;24.25;;;;;;;;;;5072252;28;20035;-56
2023/09/09 05:48:30;;;;;;;25.90;21.65;;;;;;;;;;5071881;28;20025;-55
2023/09/09 05:50:56;;;;;;;26.83;21.90;;;;;;;;;;5072942;28;20499;-54
2023/09/09 05:53:22;;;;;;;27.80;22.27;;;;;;;;;;5072859;28;20039;-56
2023/09/09 05:55:48;;;;;;;31.35;22.10;;;;;;;;;;5081731;28;20025;-56
2023/09/09 05:58:15;;;;;;;27.33;22.05;;;;;;;;;;5076035;28;20048;-56
2023/09/09 06:00:41;;;;;;;24.75;20.33;;;;;;;;;;5091953;28;20035;-57
2023/09/09 06:03:07;;;;;;;25.88;20.05;;;;;;;;;;5111686;23;20139;-61
2023/09/09 06:05:34;;;;;;;25.33;20.00;;;;;;;;;;5092150;28;20038;-60
2023/09/09 06:08:00;;;;;;;29.48;21.25;;;;;;;;;;5091432;28;20126;-59
2023/09/09 06:10:26;;;;;;;25.02;20.08;;;;;;;;;;5091751;28;20028;-60
2023/09/09 06:12:51;;;;;;;23.73;18.88;;;;;;;;;;5078325;28;20130;-59
2023/09/09 06:15:18;;;;;;;25.33;20.00;;;;;;;;;;5071553;28;20028;-61
2023/09/09 06:17:45;;;;;;;24.45;19.88;;;;;;;;;;5072186;28;20039;-59
2023/09/09 06:20:12;;;;;;;26.25;20.02;;;;;;;;;;5072409;28;20031;-61
2023/09/09 06:22:38;;;;;;;27.90;21.20;;;;;;;;;;5072047;28;20032;-59
2023/09/09 06:25:05;;;;;;;25.48;20.35;;;;;;;;;;5070457;28;20040;-61
2023/09/09 06:27:31;;;;;;;25.63;19.08;;;;;;;;;;5072064;28;20484;-59
2023/09/09 06:29:57;;;;;;;24.05;19.23;;;;;;;;;;5085664;28;20061;-61
2023/09/09 06:32:23;;;;;;;25.30;20.02;;;;;;;;;;5091838;28;20027;-60
2023/09/09 06:34:49;;;;;;;23.95;19.73;;;;;;;;;;5091149;28;20050;-61
2023/09/09 06:37:15;;;;;;;23.23;19.25;;;;;;;;;;5091728;28;20024;-59
2023/09/09 06:39:41;;;;;;;23.35;18.88;;;;;;;;;;5091688;28;20088;-59
2023/09/09 06:42:07;;;;;;;23.55;18.50;;;;;;;;;;5090416;28;20027;-59
2023/09/09 06:44:33;;;;;;;23.65;19.13;;;;;;;;;;5090961;28;20020;-60
2023/09/09 06:46:59;;;;;;;23.95;18.88;;;;;;;;;;5091297;28;20362;-59
2023/09/09 06:49:25;;;;;;;23.45;18.75;;;;;;;;;;5091516;28;20153;-60
2023/09/09 06:51:51;;;;;;;25.08;19.33;;;;;;;;;;5090819;28;20024;-61
2023/09/09 06:54:17;;;;;;;24.77;21.05;;;;;;;;;;5090425;28;20020;-59
2023/09/09 06:56:43;;;;;;;28.08;21.48;;;;;;;;;;5072249;28;20330;-58
2023/09/09 06:59:09;;;;;;;23.42;18.90;;;;;;;;;;5049230;28;20021;-61
2023/09/09 07:01:35;;;;;;;24.55;18.65;;;;;;;;;;5049320;28;20035;-60
2023/09/09 07:04:01;;;;;;;23.15;19.00;;;;;;;;;;5050172;28;20048;-60
2023/09/09 07:06:27;;;;;;;23.17;18.30;;;;;;;;;;5050429;28;20028;-63
2023/09/09 07:08:53;;;;;;;28.17;19.05;;;;;;;;;;5050838;28;20025;-60
2023/09/09 07:11:19;;;;;;;23.63;18.10;;;;;;;;;;5049402;28;20107;-59
2023/09/09 07:13:45;;;;;;;24.27;18.05;;;;;;;;;;5050869;28;20027;-62
2023/09/09 07:16:11;;;;;;;23.90;17.48;;;;;;;;;;5048693;28;20029;-60
2023/09/09 07:18:37;;;;;;;22.88;17.77;;;;;;;;;;5050816;28;20108;-59
2023/09/09 07:21:03;;;;;;;21.73;18.02;;;;;;;;;;5050531;28;20025;-59
2023/09/09 07:23:29;;;;;;;21.77;17.73;;;;;;;;;;5050567;28;20021;-59
2023/09/09 07:25:55;;;;;;;21.50;17.58;;;;;;;;;;5050016;28;20032;-62
2023/09/09 07:28:23;;;;;;;22.65;17.55;;;;;;;;;;5049263;28;20336;-60
2023/09/09 07:30:49;;;;;;;21.38;17.50;;;;;;;;;;5066686;28;20016;-58
2023/09/09 07:33:15;;;;;;;30.92;20.58;;;;;;;;;;5090310;28;20073;-55
2023/09/09 07:35:42;;;;;;;25.85;20.20;;;;;;;;;;5089516;28;20035;-54
2023/09/09 07:38:08;;;;;;;21.92;16.92;;;;;;;;;;5090304;28;20050;-57
2023/09/09 07:40:34;;;;;;;22.15;17.33;;;;;;;;;;5089055;28;20507;-53
2023/09/09 07:43:00;;;;;;;23.27;17.75;;;;;;;;;;5090352;28;20028;-53
2023/09/09 07:45:27;;;;;;;23.63;17.77;;;;;;;;;;5089377;28;20035;-54
2023/09/09 07:47:53;;;;;;;22.20;17.35;;;;;;;;;;5090101;28;20417;-56
2023/09/09 07:50:19;;;;;;;24.77;18.35;;;;;;;;;;5090093;28;20101;-50
2023/09/09 07:52:45;;;;;;;23.08;18.05;;;;;;;;;;5090190;28;20474;-52
2023/09/09 07:55:11;;;;;;;22.10;16.98;;;;;;;;;;5089420;28;20016;-50
2023/09/09 07:57:37;;;;;;;22.42;16.60;;;;;;;;;;5080131;28;20025;-54
2023/09/09 08:00:05;;;;;;;23.48;17.15;;;;;;;;;;5050055;28;20439;-51
2023/09/09 08:02:31;;;;;;;21.45;17.27;;;;;;;;;;5049566;28;20041;-51
2023/09/09 08:04:57;;;;;;;20.05;16.88;;;;;;;;;;5049086;28;20033;-53
2023/09/09 08:07:23;;;;;;;21.42;17.80;;;;;;;;;;5049840;28;20036;-48
2023/09/09 08:09:49;;;;;;;21.58;17.08;;;;;;;;;;5049279;28;20024;-54
2023/09/09 08:12:15;;;;;;;22.35;17.65;;;;;;;;;;5049410;28;20033;-57
2023/09/09 08:14:44;;;;;;;21.33;16.70;;;;;;;;;;5049033;28;20025;-58
2023/09/09 08:17:11;;;;;;;22.30;17.58;;;;;;;;;;5049566;28;20021;-57
2023/09/09 08:19:37;;;;;;;21.52;16.45;;;;;;;;;;5049607;28;20164;-59
2023/09/09 08:22:03;;;;;;;25.50;18.13;;;;;;;;;;5049580;28;20025;-60
2023/09/09 08:24:29;;;;;;;22.83;17.77;;;;;;;;;;5048767;28;20591;-57
2023/09/09 08:26:55;;;;;;;21.55;16.95;;;;;;;;;;5059912;28;20021;-57
2023/09/09 08:29:21;;;;;;;21.52;18.38;;;;;;;;;;5067366;28;20454;-56
2023/09/09 08:31:48;;;;;;;21.33;17.02;;;;;;;;;;5067149;28;20099;-52
2023/09/09 08:34:14;;;;;;;21.90;17.95;;;;;;;;;;5066246;28;20495;-52
2023/09/09 08:36:40;;;;;;;23.92;18.42;;;;;;;;;;5068481;28;20024;-56
2023/09/09 08:39:06;;;;;;;24.67;21.13;;;;;;;;;;5068588;28;20507;-53
2023/09/09 08:41:32;;;;;;;23.77;20.20;;;;;;;;;;5068707;28;20049;-54
2023/09/09 08:44:01;;;;;;;21.92;17.25;;;;;;;;;;5068443;28;20067;-51
2023/09/09 08:46:27;;;;;;;24.63;19.10;;;;;;;;;;5069394;28;20048;-53
2023/09/09 08:48:53;;;;;;;20.75;17.83;;;;;;;;;;5072762;28;20029;-55
2023/09/09 08:51:39;;;;;;;22.45;18.27;;;;;;;;;;5073151;28;20025;-55
2023/09/09 08:54:07;;;;;;;25.25;19.60;;;;;;;;;;5072250;28;20036;-54
2023/09/09 08:56:33;;;;;;;26.63;19.60;;;;;;;;;;5071220;28;20029;-52
2023/09/09 08:58:59;;;;;;;23.42;17.98;;;;;;;;;;5056874;28;20029;-54
2023/09/09 09:01:25;;;;;;;24.60;18.85;;;;;;;;;;5052743;28;20028;-55
2023/09/09 09:03:54;;;;;;;26.47;18.57;;;;;;;;;;5052713;28;20053;-52
2023/09/09 09:06:20;;;;;;;27.00;18.75;;;;;;;;;;5052496;28;20104;-53
2023/09/09 09:08:46;;;;;;;23.92;18.90;;;;;;;;;;5052963;28;20557;-54
2023/09/09 09:11:12;;;;;;;23.30;19.38;;;;;;;;;;5051573;28;20017;-56
2023/09/09 09:13:38;;;;;;;24.83;19.58;;;;;;;;;;5052638;28;20025;-52
2023/09/09 09:16:04;;;;;;;24.33;20.38;;;;;;;;;;5051808;28;20047;-55
2023/09/09 09:18:30;;;;;;;24.70;18.52;;;;;;;;;;5052885;28;20383;-50
2023/09/09 09:21:06;;;;;;;26.45;19.35;;;;;;;;;;5052825;28;20029;-51
2023/09/09 09:23:32;;;;;;;25.52;19.13;;;;;;;;;;5052810;28;20037;-52
2023/09/09 09:25:58;;;;;;;23.90;19.38;;;;;;;;;;5052017;28;20095;-55
2023/09/09 09:28:28;;;;;;;25.95;19.98;;;;;;;;;;5052693;28;20025;-53
2023/09/09 09:30:54;;;;;;;24.30;20.23;;;;;;;;;;5052451;28;20451;-54
2023/09/09 09:33:27;;;;;;;23.95;19.73;;;;;;;;;;5052425;28;20100;-55
2023/09/09 09:35:53;;;;;;;22.67;19.13;;;;;;;;;;5051684;28;20025;-54
2023/09/09 09:38:19;;;;;;;25.75;19.20;;;;;;;;;;5052333;28;20453;-55
2023/09/09 09:40:45;;;;;;;26.95;20.38;;;;;;;;;;5050706;28;20057;-52
2023/09/09 09:43:18;;;;;;;44.40;19.00;;;;;;;;;;5050756;28;20047;-55
2023/09/09 09:45:44;;;;;;;23.80;18.92;;;;;;;;;;5051440;28;20036;-55
2023/09/09 09:48:10;;;;;;;22.40;18.85;;;;;;;;;;5052162;28;20025;-54
2023/09/09 09:50:37;;;;;;;22.45;18.75;;;;;;;;;;5052139;28;20032;-52
2023/09/09 09:53:08;;;;;;;21.42;18.60;;;;;;;;;;5052553;28;20024;-60
2023/09/09 09:55:35;;;;;;;24.90;18.73;;;;;;;;;;5050733;28;20397;-57
2023/09/09 09:58:02;;;;;;;28.40;17.73;;;;;;;;;;5051275;28;20021;-57
2023/09/09 10:00:28;;;;;;;21.90;18.48;;;;;;;;;;5051097;28;20036;-57
2023/09/09 10:02:55;;;;;;;20.85;17.67;;;;;;;;;;5051481;28;20408;-60
2023/09/09 10:05:22;;;;;;;23.47;17.73;;;;;;;;;;5050759;28;20039;-58
2023/09/09 10:08:08;;;;;;;21.60;17.45;;;;;;;;;;5051573;28;20452;-57
2023/09/09 10:10:35;;;;;;;22.05;18.02;;;;;;;;;;5019895;28;20087;-64
2023/09/09 10:13:14;;;;;;;20.90;17.90;;;;;;;;;;5051461;28;20215;-59
2023/09/09 10:15:41;;;;;;;22.55;17.67;;;;;;;;;;5050682;28;20033;-60
2023/09/09 10:18:07;;;;;;;24.52;17.70;;;;;;;;;;5051177;28;20564;-58
2023/09/09 10:20:34;;;;;;;21.77;17.75;;;;;;;;;;5049998;28;20031;-57
2023/09/09 10:23:00;;;;;;;21.40;17.02;;;;;;;;;;5051337;28;20103;-57
2023/09/09 10:25:27;;;;;;;23.67;18.45;;;;;;;;;;5056491;28;20111;-60
2023/09/09 10:27:53;;;;;;;23.40;18.45;;;;;;;;;;5067960;28;20032;-68
2023/09/09 10:30:20;;;;;;;22.27;18.50;;;;;;;;;;5070876;28;20043;-67
2023/09/09 10:32:47;;;;;;;20.40;17.85;;;;;;;;;;4705504;28;10000135;-68
2023/09/09 10:35:14;;;;;;;19.92;16.77;;;;;;;;;;5055109;28;20540;-68
2023/09/09 10:37:41;;;;;;;22.03;17.27;;;;;;;;;;5051575;28;20032;-68
2023/09/09 10:40:09;;;;;;;23.08;17.67;;;;;;;;;;5070303;28;20032;-68
2023/09/09 10:42:38;;;;;;;22.50;17.53;;;;;;;;;;5070044;28;20093;-68
2023/09/09 10:45:23;;;;;;;19.60;17.17;;;;;;;;;;5070089;28;20021;-68
2023/09/09 10:47:54;;;;;;;19.98;16.80;;;;;;;;;;5070832;28;20044;-67
2023/09/09 10:50:20;;;;;;;22.95;17.08;;;;;;;;;;5056539;28;20090;-69
2023/09/09 10:52:46;;;;;;;22.08;17.58;;;;;;;;;;5050557;28;20025;-71
2023/09/09 10:55:13;;;;;;;21.10;17.27;;;;;;;;;;5049576;28;20098;-68
2023/09/09 10:57:39;;;;;;;19.92;16.38;;;;;;;;;;5050617;28;20020;-68
2023/09/09 11:00:06;;;;;;;20.08;16.63;;;;;;;;;;5050656;28;20135;-68
2023/09/09 11:02:43;;;;;;;19.77;17.08;;;;;;;;;;5050123;28;20037;-69
2023/09/09 11:05:13;;;;;;;18.80;16.80;;;;;;;;;;5048701;28;20065;-68
2023/09/09 11:07:45;;;;;;;20.42;16.35;;;;;;;;;;5066454;28;20475;-68
2023/09/09 11:10:18;;;;;;;21.40;17.38;;;;;;;;;;5072490;28;20103;-67
2023/09/09 11:12:58;;;;;;;20.52;17.52;;;;;;;;;;5083902;28;20100;-67
2023/09/09 11:15:25;;;;;;;21.40;18.20;;;;;;;;;;5089722;28;20012;-68
2023/09/09 11:17:51;;;;;;;20.95;17.23;;;;;;;;;;5090515;28;20044;-68
2023/09/09 11:20:20;;;;;;;19.80;17.70;;;;;;;;;;5090772;28;20031;-68
2023/09/09 11:22:46;;;;;;;23.65;19.70;;;;;;;;;;5089149;28;20027;-67
2023/09/09 11:25:14;;;;;;;23.95;19.52;;;;;;;;;;5089688;28;20035;-68
2023/09/09 11:27:41;;;;;;;21.67;18.05;;;;;;;;;;5088882;28;20024;-68
2023/09/09 11:30:07;;;;;;;20.23;18.10;;;;;;;;;;4720880;28;10000097;-68
2023/09/09 11:32:33;;;;;;;22.95;19.50;;;;;;;;;;5062709;28;20065;-68
2023/09/09 11:34:59;;;;;;;22.88;19.23;;;;;;;;;;5046292;28;20028;-68
2023/09/09 11:37:28;;;;;;;21.67;19.08;;;;;;;;;;5047086;28;20607;-68
2023/09/09 11:39:55;;;;;;;24.25;19.35;;;;;;;;;;5046814;28;20043;-69
2023/09/09 11:42:21;;;;;;;23.67;19.92;;;;;;;;;;5046253;28;20029;-69
2023/09/09 11:44:47;;;;;;;20.98;18.77;;;;;;;;;;5046017;28;20036;-67
2023/09/09 11:47:14;;;;;;;22.70;18.70;;;;;;;;;;5045592;28;20024;-68
2023/09/09 11:49:43;;;;;;;26.10;19.20;;;;;;;;;;5046598;28;20025;-68
2023/09/09 11:52:09;;;;;;;22.40;18.40;;;;;;;;;;5046428;28;20355;-67
2023/09/09 11:54:36;;;;;;;24.33;17.75;;;;;;;;;;5045571;28;20032;-68
2023/09/09 11:57:06;;;;;;;20.77;18.17;;;;;;;;;;5046722;28;20442;-68
2023/09/09 11:59:32;;;;;;;22.58;18.15;;;;;;;;;;5046654;28;20413;-68
2023/09/09 12:01:58;;;;;;;24.98;17.98;;;;;;;;;;5045998;28;20029;-68
2023/09/09 12:04:25;;;;;;;22.30;17.73;;;;;;;;;;5072231;23;20059;-54
2023/09/09 12:06:51;;;;;;;19.27;17.17;;;;;;;;;;5067323;28;20108;-57
2023/09/09 12:09:18;;;;;;;22.55;17.80;;;;;;;;;;5067589;28;20020;-57
2023/09/09 12:11:44;;;;;;;22.00;17.48;;;;;;;;;;5067859;28;20680;-56
2023/09/09 12:14:11;;;;;;;25.60;17.55;;;;;;;;;;5066762;28;20021;-56
2023/09/09 12:16:38;;;;;;;20.45;17.75;;;;;;;;;;5068797;28;20104;-56
2023/09/09 12:19:04;;;;;;;22.27;17.25;;;;;;;;;;5070243;28;20028;-56
2023/09/09 12:21:31;;;;;;;24.63;18.48;;;;;;;;;;5052571;28;20059;-55
2023/09/09 12:23:59;;;;;;;21.90;17.63;;;;;;;;;;4683286;28;10000485;-56
2023/09/09 12:26:25;;;;;;;21.65;17.63;;;;;;;;;;5051207;28;20173;-56
2023/09/09 12:29:06;;;;;;;23.67;18.40;;;;;;;;;;5050978;28;20440;-56
2023/09/09 12:31:33;;;;;;;23.02;17.67;;;;;;;;;;5050468;28;20485;-54
2023/09/09 12:33:59;;;;;;;23.05;17.95;;;;;;;;;;5040999;28;20029;-53
2023/09/09 12:36:25;;;;;;;23.42;17.20;;;;;;;;;;5030749;28;20029;-55
2023/09/09 12:38:51;;;;;;;21.90;17.50;;;;;;;;;;5031100;28;20061;-53
2023/09/09 12:41:21;;;;;;;23.30;18.58;;;;;;;;;;5031081;28;20029;-52
2023/09/09 12:43:53;;;;;;;21.88;18.08;;;;;;;;;;5030928;28;20029;-55
2023/09/09 12:46:19;;;;;;;25.98;18.17;;;;;;;;;;5030098;28;20025;-51
2023/09/09 12:48:52;;;;;;;24.00;18.15;;;;;;;;;;5030990;28;20030;-54
2023/09/09 12:51:18;;;;;;;25.45;18.20;;;;;;;;;;5030969;28;20030;-53
2023/09/09 12:53:44;;;;;;;21.58;17.63;;;;;;;;;;5031439;28;20565;-53
2023/09/09 12:56:10;;;;;;;22.92;18.52;;;;;;;;;;5013765;28;20152;-54
2023/09/09 12:58:36;;;;;;;21.73;18.40;;;;;;;;;;5058854;28;20037;-54
2023/09/09 13:01:02;;;;;;;22.88;18.10;;;;;;;;;;5073740;28;20032;-53
2023/09/09 13:03:28;;;;;;;26.13;18.77;;;;;;;;;;5073323;28;20500;-53
2023/09/09 13:05:54;;;;;;;21.08;18.02;;;;;;;;;;5051324;28;20073;-52
2023/09/09 13:08:20;;;;;;;22.55;18.33;;;;;;;;;;4681500;28;10000388;-53
2023/09/09 13:10:46;;;;;;;23.23;17.33;;;;;;;;;;5050124;28;20040;-50
2023/09/09 13:13:12;;;;;;;22.00;17.80;;;;;;;;;;5050210;28;20032;-53
2023/09/09 13:15:38;;;;;;;26.05;18.33;;;;;;;;;;5031425;28;20090;-53
2023/09/09 13:18:04;;;;;;;20.80;18.58;;;;;;;;;;5049660;28;20041;-52
2023/09/09 13:20:31;;;;;;;21.45;18.33;;;;;;;;;;5050018;28;20061;-57
2023/09/09 13:22:57;;;;;;;23.27;17.97;;;;;;;;;;5049936;28;20094;-48
2023/09/09 13:25:23;;;;;;;21.48;17.92;;;;;;;;;;5043542;28;20401;-52
2023/09/09 13:27:49;;;;;;;24.70;17.65;;;;;;;;;;5049485;28;20025;-47
2023/09/09 13:30:15;;;;;;;23.45;18.58;;;;;;;;;;5049238;28;20040;-51
2023/09/09 13:32:41;;;;;;;25.75;17.35;;;;;;;;;;5049381;28;20112;-55
2023/09/09 13:35:07;;;;;;;22.77;17.98;;;;;;;;;;5013016;28;20109;-54
2023/09/09 13:37:33;;;;;;;25.33;18.77;;;;;;;;;;5029858;28;20507;-54
2023/09/09 13:40:00;;;;;;;28.83;23.63;;;;;;;;;;5036300;28;20402;-54
2023/09/09 13:42:26;;;;;;;23.10;19.63;;;;;;;;;;5045447;28;20041;-55
2023/09/09 13:44:52;;;;;;;24.52;19.17;;;;;;;;;;5048604;28;20186;-55
2023/09/09 13:47:18;;;;;;;22.80;18.45;;;;;;;;;;5049163;28;20028;-55
2023/09/09 13:49:44;;;;;;;52.50;47.08;;;;;;;;;;5049295;28;20485;-53
2023/09/09 13:52:10;;;;;;;30.27;20.25;;;;;;;;;;5049068;28;20024;-56
2023/09/09 13:54:37;;;;;;;26.75;22.30;;;;;;;;;;5048209;28;20075;-55
2023/09/09 13:57:03;;;;;;;28.55;23.30;;;;;;;;;;5050333;28;20067;-55
2023/09/09 13:59:30;;;;;;;29.55;24.30;;;;;;;;;;5033260;28;20473;-53
2023/09/09 14:01:56;;;;;;;23.55;17.33;;;;;;;;;;5052473;28;20025;-54
2023/09/09 14:04:23;;;;;;;22.75;17.60;;;;;;;;;;5033448;28;20032;-55
2023/09/09 14:06:49;;;;;;;21.75;17.13;;;;;;;;;;5052441;28;20021;-53
2023/09/09 14:09:15;;;;;;;20.95;17.55;;;;;;;;;;4686607;28;9999684;-54
2023/09/09 14:11:41;;;;;;;23.35;17.42;;;;;;;;;;5028909;28;20022;-55
2023/09/09 14:14:07;;;;;;;21.60;17.17;;;;;;;;;;5011288;28;20481;-52